Time;durP1;ratioP1;P1;durP2;ratioP2;P2;SDS_P1;SDS_P2;PMS_P1;PMS_P2;Temp;Humidity;BMP_temperature;BMP_pressure;BME280_temperature;BME280_humidity;BME280_pressure;Samples;Min_cycle;Max_cycle;Signal;HPM_P1;HPM_P2
2021/12/25 00:00:19;;;;;;;10.52;9.52;;;6.00;99.90;;;;;;5040692;28;20209;-85
2021/12/25 00:02:46;;;;;;;7.88;7.28;;;5.60;99.90;;;;;;5058879;28;20261;-85
2021/12/25 00:05:12;;;;;;;7.15;6.60;;;5.50;99.90;;;;;;5058754;28;20265;-84
2021/12/25 00:07:38;;;;;;;8.73;7.65;;;5.40;99.90;;;;;;5043587;28;20187;-84
2021/12/25 00:10:07;;;;;;;7.37;6.83;;;5.50;99.90;;;;;;5060507;28;20640;-85
2021/12/25 00:12:33;;;;;;;7.28;6.78;;;5.50;99.90;;;;;;5058739;28;20187;-85
2021/12/25 00:15:00;;;;;;;7.87;7.00;;;5.40;99.90;;;;;;5054272;28;20194;-86
2021/12/25 00:17:26;;;;;;;6.68;6.18;;;5.20;99.90;;;;;;5038046;28;20504;-86
2021/12/25 00:19:53;;;;;;;7.10;6.60;;;5.40;99.90;;;;;;5067560;28;20186;-85
2021/12/25 00:22:25;;;;;;;6.78;6.18;;;5.30;99.90;;;;;;5040926;28;20175;-86
2021/12/25 00:24:50;;;;;;;4.88;4.55;;;5.30;99.90;;;;;;5059115;28;20213;-85
2021/12/25 00:35:08;;;;;;;8.73;8.00;;;5.10;99.90;;;;;;5066980;28;20570;-84
2021/12/25 00:37:34;;;;;;;8.00;7.40;;;5.10;99.90;;;;;;5047716;28;20190;-84
2021/12/25 00:39:59;;;;;;;8.63;7.93;;;5.20;99.90;;;;;;5054404;28;20333;-84
2021/12/25 00:42:25;;;;;;;8.20;7.50;;;5.40;99.90;;;;;;5038954;28;20655;-86
2021/12/25 00:44:51;;;;;;;7.87;7.03;;;5.30;99.90;;;;;;5065720;28;20183;-84
2021/12/25 00:47:17;;;;;;;8.30;7.60;;;5.50;99.90;;;;;;5064817;28;20946;-85
2021/12/25 00:49:45;;;;;;;8.70;7.77;;;5.50;99.90;;;;;;5066134;28;20703;-84
2021/12/25 00:52:11;;;;;;;9.55;8.65;;;5.20;99.90;;;;;;5053658;28;20183;-87
2021/12/25 00:54:37;;;;;;;8.83;8.03;;;5.10;99.90;;;;;;5065866;28;20216;-83
2021/12/25 00:57:03;;;;;;;10.80;9.37;;;4.80;99.90;;;;;;5064673;28;20181;-83
2021/12/25 00:59:31;;;;;;;9.57;8.70;;;5.30;99.90;;;;;;5047896;28;20475;-86
2021/12/25 01:01:58;;;;;;;10.75;9.75;;;5.40;99.90;;;;;;5057287;28;20226;-84
2021/12/25 01:04:24;;;;;;;14.82;12.95;;;5.10;99.90;;;;;;5044991;28;20182;-84
2021/12/25 01:06:49;;;;;;;16.37;13.70;;;4.90;99.90;;;;;;5039958;28;20179;-85
2021/12/25 01:09:16;;;;;;;14.23;11.17;;;7.20;99.90;;;;;;5046675;28;20495;-84
2021/12/25 01:11:44;;;;;;;14.82;13.13;;;4.40;99.90;;;;;;5060647;28;20191;-85
2021/12/25 01:24:45;;;;;;;17.05;14.43;;;4.70;99.90;;;;;;5067365;28;20193;-85
2021/12/25 01:35:36;;;;;;;14.27;12.52;;;4.50;99.90;;;;;;5015252;28;20194;-87
2021/12/25 01:38:18;;;;;;;14.38;12.60;;;6.20;99.90;;;;;;5042616;28;20190;-86
2021/12/25 01:40:55;;;;;;;14.93;13.27;;;4.10;99.90;;;;;;5052663;28;20189;-86
2021/12/25 01:48:49;;;;;;;15.27;13.65;;;4.20;99.90;;;;;;5060216;28;20315;-85
2021/12/25 01:51:15;;;;;;;15.47;12.60;;;4.00;99.90;;;;;;5056564;28;20852;-86
2021/12/25 01:53:41;;;;;;;18.00;14.23;;;4.50;99.90;;;;;;5061143;28;20194;-85
2021/12/25 01:56:07;;;;;;;12.53;11.23;;;4.20;99.90;;;;;;5031089;28;20179;-85
2021/12/25 01:58:34;;;;;;;15.50;13.47;;;4.30;99.90;;;;;;5066383;28;20548;-85
2021/12/25 02:01:00;;;;;;;15.93;13.52;;;4.30;99.90;;;;;;5057344;28;20186;-84
2021/12/25 02:03:30;;;;;;;15.27;13.35;;;4.30;99.90;;;;;;5049546;28;20222;-84
2021/12/25 02:05:57;;;;;;;15.85;14.15;;;4.50;99.90;;;;;;5051363;28;20709;-85
2021/12/25 02:08:23;;;;;;;13.50;12.07;;;7.30;99.90;;;;;;5055962;28;20187;-85
2021/12/25 02:10:49;;;;;;;12.88;11.57;;;4.20;99.90;;;;;;5048909;28;20194;-84
2021/12/25 02:13:16;;;;;;;11.98;10.73;;;4.30;99.90;;;;;;5050771;28;20183;-85
2021/12/25 02:15:45;;;;;;;12.57;11.35;;;4.10;99.90;;;;;;5069806;28;20178;-85
2021/12/25 02:18:21;;;;;;;13.30;11.93;;;4.10;99.90;;;;;;5044649;28;20270;-85
2021/12/25 02:21:50;;;;;;;13.27;11.73;;;4.00;99.90;;;;;;5065087;28;20190;-84
2021/12/25 02:23:41;;;;;;;14.18;12.40;;;4.10;99.90;;;;;;5039722;28;20199;-85
2021/12/25 02:26:07;;;;;;;11.97;9.80;;;3.90;99.90;;;;;;5063683;28;20326;-84
2021/12/25 02:28:34;;;;;;;13.70;11.10;;;4.90;99.90;;;;;;5072062;28;20585;-84
2021/12/25 02:31:04;;;;;;;14.77;12.15;;;3.80;99.90;;;;;;5070734;28;20451;-84
2021/12/25 02:33:30;;;;;;;14.73;13.27;;;4.10;99.90;;;;;;5076400;28;20281;-85
2021/12/25 02:35:56;;;;;;;15.60;14.07;;;3.90;99.90;;;;;;5070945;28;20182;-84
2021/12/25 02:38:22;;;;;;;12.88;11.15;;;3.80;99.90;;;;;;5041113;28;20185;-85
2021/12/25 02:40:48;;;;;;;15.65;13.98;;;3.80;99.90;;;;;;5056733;28;20187;-85
2021/12/25 02:43:15;;;;;;;13.67;12.17;;;5.00;99.90;;;;;;5055185;28;20197;-84
2021/12/25 02:45:40;;;;;;;13.90;12.60;;;3.80;99.90;;;;;;5071462;28;20647;-84
2021/12/25 02:48:09;;;;;;;13.80;12.47;;;3.80;99.90;;;;;;5040322;28;20183;-84
2021/12/25 02:50:36;;;;;;;13.98;12.60;;;3.90;99.90;;;;;;5043985;28;20244;-84
2021/12/25 02:53:04;;;;;;;13.52;12.27;;;4.40;99.90;;;;;;5068923;28;20241;-85
2021/12/25 02:55:31;;;;;;;14.00;12.60;;;3.70;99.90;;;;;;5043099;28;20194;-84
2021/12/25 02:57:56;;;;;;;15.32;13.75;;;3.70;99.90;;;;;;5066824;28;20269;-85
2021/12/25 03:00:29;;;;;;;16.23;14.10;;;3.60;99.90;;;;;;5048695;28;20325;-85
2021/12/25 03:02:56;;;;;;;14.10;12.60;;;3.60;99.90;;;;;;5060481;28;20293;-85
2021/12/25 03:05:22;;;;;;;14.07;12.60;;;3.60;99.90;;;;;;5063924;28;20305;-84
2021/12/25 03:07:47;;;;;;;15.20;13.57;;;5.20;99.90;;;;;;5047544;28;20845;-84
2021/12/25 03:10:16;;;;;;;15.33;13.73;;;3.70;99.90;;;;;;5062086;28;20210;-86
2021/12/25 03:13:15;;;;;;;16.25;14.48;;;3.90;99.90;;;;;;5059294;28;20193;-85
2021/12/25 03:15:45;;;;;;;18.58;14.63;;;4.40;99.90;;;;;;5062956;28;20201;-84
2021/12/25 03:18:20;;;;;;;16.10;14.18;;;3.60;99.90;;;;;;5064568;28;20281;-85
2021/12/25 03:20:50;;;;;;;14.73;13.18;;;3.60;99.90;;;;;;5038966;28;20189;-85
2021/12/25 03:23:18;;;;;;;14.75;13.30;;;3.70;99.90;;;;;;5063273;28;20196;-84
2021/12/25 03:25:46;;;;;;;16.65;14.82;;;3.90;99.90;;;;;;5065224;28;20656;-85
2021/12/25 03:28:14;;;;;;;14.90;13.43;;;3.50;99.90;;;;;;5067276;28;20178;-85
2021/12/25 03:30:39;;;;;;;16.90;14.82;;;3.70;99.90;;;;;;5068254;28;20222;-84
2021/12/25 03:33:15;;;;;;;17.67;14.83;;;4.00;99.90;;;;;;5048333;28;20222;-84
2021/12/25 03:35:41;;;;;;;18.35;16.25;;;3.50;99.90;;;;;;5049799;28;20218;-84
2021/12/25 03:38:09;;;;;;;15.68;13.70;;;3.50;99.90;;;;;;5041034;28;20277;-85
2021/12/25 03:40:36;;;;;;;17.95;14.95;;;3.90;99.90;;;;;;5049869;28;20616;-85
2021/12/25 03:43:02;;;;;;;14.43;12.90;;;3.80;99.90;;;;;;5045576;28;20560;-85
2021/12/25 03:45:31;;;;;;;14.93;13.38;;;4.90;99.90;;;;;;5068082;28;20185;-84
2021/12/25 03:48:13;;;;;;;18.70;15.10;;;3.60;99.90;;;;;;5044247;28;20729;-84
2021/12/25 03:58:57;;;;;;;17.00;14.43;;;3.30;99.90;;;;;;5065439;28;20281;-85
2021/12/25 04:04:04;;;;;;;16.80;14.02;;;3.50;99.90;;;;;;5065755;28;20537;-84
2021/12/25 04:06:30;;;;;;;17.73;15.15;;;3.60;99.90;;;;;;5033717;28;20574;-83
2021/12/25 04:08:57;;;;;;;16.55;14.35;;;3.10;99.90;;;;;;5060804;28;20210;-83
2021/12/25 04:11:29;;;;;;;15.82;14.02;;;3.30;99.90;;;;;;5059544;28;20240;-83
2021/12/25 04:13:56;;;;;;;17.75;14.68;;;3.30;99.90;;;;;;5063997;28;20597;-83
2021/12/25 04:16:22;;;;;;;16.05;14.45;;;3.40;99.90;;;;;;5039382;28;20191;-84
2021/12/25 04:18:47;;;;;;;17.80;14.23;;;3.40;99.90;;;;;;5067850;28;20170;-84
2021/12/25 04:21:13;;;;;;;16.20;13.53;;;3.20;99.90;;;;;;5039746;28;20985;-84
2021/12/25 04:23:43;;;;;;;16.43;14.80;;;3.10;99.90;;;;;;5050123;28;20281;-83
2021/12/25 04:26:09;;;;;;;16.05;14.40;;;3.00;99.90;;;;;;5043165;28;20185;-84
2021/12/25 04:29:01;;;;;;;15.77;12.90;;;3.00;99.90;;;;;;5049566;28;20305;-85
2021/12/25 04:48:17;;;;;;;16.63;14.93;;;3.00;99.90;;;;;;5062300;28;20198;-84
2021/12/25 05:04:09;;;;;;;16.67;13.57;;;2.70;99.90;;;;;;5056063;28;20260;-84
2021/12/25 05:06:35;;;;;;;16.23;14.48;;;3.00;99.90;;;;;;5062013;28;20648;-83
2021/12/25 05:09:00;;;;;;;16.83;14.13;;;2.90;99.90;;;;;;5047962;28;20286;-84
2021/12/25 05:11:26;;;;;;;15.80;14.20;;;2.90;99.90;;;;;;5051512;28;20266;-84
2021/12/25 05:13:52;;;;;;;13.40;10.80;;;3.10;99.90;;;;;;5066059;28;20183;-84
2021/12/25 05:16:18;;;;;;;14.50;13.00;;;2.90;99.90;;;;;;5053421;28;20802;-84
2021/12/25 05:18:44;;;;;;;14.75;13.20;;;2.50;99.90;;;;;;5098654;22;20259;-90
2021/12/25 05:21:12;;;;;;;17.00;12.50;;;;;;;;;;5086109;28;20183;-90
2021/12/25 05:23:38;;;;;;;16.83;12.90;;;;;;;;;;5070521;28;20182;-91
2021/12/25 05:26:05;;;;;;;14.05;12.55;;;2.50;99.90;;;;;;5082815;28;20240;-90
2021/12/25 05:28:39;;;;;;;16.40;13.40;;;2.60;99.90;;;;;;5072200;28;20212;-91
2021/12/25 05:31:06;;;;;;;13.20;11.63;;;2.60;99.90;;;;;;5084760;28;20174;-92
2021/12/25 05:33:32;;;;;;;14.63;12.85;;;;;;;;;;5068847;28;20190;-89
2021/12/25 05:35:59;;;;;;;15.57;13.93;;;2.50;99.90;;;;;;5071432;28;20288;-90
2021/12/25 05:38:25;;;;;;;15.77;14.05;;;2.30;99.90;;;;;;5070957;28;20683;-91
2021/12/25 05:40:51;;;;;;;15.60;14.00;;;2.30;99.90;;;;;;5080048;28;20186;-90
2021/12/25 05:43:17;;;;;;;15.50;14.00;;;2.40;99.90;;;;;;5087311;28;20205;-89
2021/12/25 05:45:43;;;;;;;14.05;12.60;;;2.30;99.90;;;;;;5078641;28;20270;-90
2021/12/25 05:48:10;;;;;;;15.77;12.88;;;2.10;99.90;;;;;;5076601;28;20580;-91
2021/12/25 05:50:36;;;;;;;16.40;13.50;;;2.20;99.90;;;;;;5081637;28;20943;-91
2021/12/25 05:53:05;;;;;;;12.93;11.15;;;2.10;99.90;;;;;;5057989;28;20671;-90
2021/12/25 05:55:32;;;;;;;20.90;13.82;;;2.20;99.90;;;;;;5080738;28;20659;-89
2021/12/25 05:57:58;;;;;;;13.90;11.90;;;;;;;;;;5058223;28;20199;-90
2021/12/25 06:00:24;;;;;;;16.65;14.85;;;2.20;99.90;;;;;;5060490;28;20567;-89
2021/12/25 06:02:51;;;;;;;18.83;13.90;;;2.00;99.90;;;;;;5033461;28;20295;-90
2021/12/25 06:05:19;;;;;;;17.65;15.30;;;2.30;99.90;;;;;;5059189;28;20354;-89
2021/12/25 06:07:45;;;;;;;14.30;12.00;;;2.00;99.90;;;;;;5053271;28;20203;-90
2021/12/25 06:10:11;;;;;;;13.73;11.30;;;2.00;99.90;;;;;;5038870;28;20210;-90
2021/12/25 06:12:38;;;;;;;15.37;13.13;;;2.00;99.90;;;;;;4362621;28;10000646;-89
2021/12/25 06:15:13;;;;;;;15.93;13.90;;;1.80;99.90;;;;;;5054791;28;20183;-90
2021/12/25 06:17:40;;;;;;;15.43;12.25;;;1.70;99.90;;;;;;5046904;28;20393;-90
2021/12/25 06:20:07;;;;;;;15.23;13.13;;;1.70;99.90;;;;;;5030213;28;20186;-88
2021/12/25 06:22:33;;;;;;;17.33;13.52;;;2.00;99.90;;;;;;5036814;28;20228;-89
2021/12/25 06:24:58;;;;;;;17.93;15.53;;;1.90;99.90;;;;;;5034994;28;20191;-89
2021/12/25 06:27:24;;;;;;;13.37;11.73;;;1.90;99.90;;;;;;5043892;28;20538;-90
2021/12/25 06:29:50;;;;;;;16.90;14.23;;;1.80;99.90;;;;;;5060735;28;20206;-89
2021/12/25 06:32:17;;;;;;;15.15;13.55;;;1.40;99.90;;;;;;5040221;28;20194;-89
2021/12/25 06:34:43;;;;;;;13.20;11.15;;;;;;;;;;5034203;28;20191;-89
2021/12/25 06:37:09;;;;;;;11.43;10.32;;;;;;;;;;5050601;28;20183;-89
2021/12/25 06:39:35;;;;;;;14.82;13.48;;;;;;;;;;5037939;28;20195;-90
2021/12/25 06:42:04;;;;;;;15.57;13.93;;;2.40;99.90;;;;;;5036279;28;20195;-91
2021/12/25 06:44:30;;;;;;;16.08;13.27;;;4.00;99.90;;;;;;5035954;28;20195;-90
2021/12/25 06:46:56;;;;;;;15.37;12.50;;;1.70;99.90;;;;;;5056526;28;20286;-90
2021/12/25 06:49:24;;;;;;;15.90;13.27;;;1.70;99.90;;;;;;5061778;28;20203;-91
2021/12/25 06:51:50;;;;;;;18.42;13.55;;;1.50;99.90;;;;;;5045886;28;20194;-89
2021/12/25 06:54:17;;;;;;;14.35;12.77;;;1.60;99.90;;;;;;5040840;28;20182;-90
2021/12/25 06:56:44;;;;;;;16.15;13.30;;;1.60;99.90;;;;;;5042168;28;20687;-89
2021/12/25 06:59:11;;;;;;;13.88;11.13;;;1.50;99.90;;;;;;5041082;28;20194;-89
2021/12/25 07:01:37;;;;;;;13.85;12.45;;;1.70;99.90;;;;;;5048381;28;20186;-89
2021/12/25 07:04:06;;;;;;;10.95;9.85;;;2.00;99.90;;;;;;5031760;28;20195;-90
2021/12/25 07:06:33;;;;;;;13.38;12.07;;;1.80;99.90;;;;;;5056735;28;20550;-89
2021/12/25 07:08:59;;;;;;;12.38;10.85;;;;;;;;;;5040356;28;20500;-89
2021/12/25 07:11:25;;;;;;;16.02;11.73;;;1.70;99.90;;;;;;5041492;28;20202;-89
2021/12/25 07:13:51;;;;;;;18.67;12.83;;;1.40;99.90;;;;;;5052473;28;20187;-90
2021/12/25 07:16:19;;;;;;;14.68;13.18;;;1.60;99.90;;;;;;5034112;28;20600;-90
2021/12/25 07:18:45;;;;;;;14.95;13.25;;;1.50;99.90;;;;;;5057440;28;20226;-90
2021/12/25 07:21:12;;;;;;;13.57;12.27;;;1.40;99.90;;;;;;5058913;28;20246;-89
2021/12/25 07:23:38;;;;;;;14.05;12.65;;;1.40;99.90;;;;;;5086338;28;20337;-90
2021/12/25 07:26:04;;;;;;;12.23;9.40;;;1.10;99.90;;;;;;5073738;28;20183;-90
2021/12/25 07:28:29;;;;;;;12.77;10.45;;;1.40;99.90;;;;;;5048875;28;20525;-90
2021/12/25 07:30:58;;;;;;;13.70;12.30;;;1.50;99.90;;;;;;5071852;28;20191;-91
2021/12/25 07:33:23;;;;;;;12.80;11.60;;;1.30;99.90;;;;;;5063186;28;20294;-90
2021/12/25 07:35:49;;;;;;;13.70;12.30;;;1.40;99.90;;;;;;5034429;28;20213;-90
2021/12/25 07:38:17;;;;;;;14.33;12.93;;;1.40;99.90;;;;;;5058297;28;20482;-89
2021/12/25 07:40:42;;;;;;;12.30;10.75;;;1.50;99.90;;;;;;5041503;28;20657;-89
2021/12/25 07:43:08;;;;;;;13.93;12.37;;;1.40;99.90;;;;;;5039336;28;20235;-91
2021/12/25 07:45:34;;;;;;;16.07;14.13;;;;;;;;;;5047991;28;20946;-89
2021/12/25 07:48:02;;;;;;;14.13;12.63;;;1.40;99.90;;;;;;5031252;28;20222;-89
2021/12/25 07:50:30;;;;;;;13.55;11.95;;;1.40;99.90;;;;;;5052007;28;20814;-90
2021/12/25 07:52:55;;;;;;;13.55;11.10;;;1.30;99.90;;;;;;5058630;28;20187;-90
2021/12/25 07:55:21;;;;;;;14.90;13.17;;;1.10;99.90;;;;;;5069975;28;20186;-90
2021/12/25 07:57:47;;;;;;;16.17;13.67;;;1.20;99.90;;;;;;5043555;28;20665;-89
2021/12/25 08:00:14;;;;;;;18.90;15.33;;;1.30;99.90;;;;;;5050219;28;20203;-90
2021/12/25 08:02:42;;;;;;;13.25;11.95;;;1.40;99.90;;;;;;5035009;28;20179;-91
2021/12/25 08:05:08;;;;;;;17.67;13.00;;;1.20;99.90;;;;;;5049857;28;20668;-89
2021/12/25 08:07:34;;;;;;;14.20;12.70;;;1.00;99.90;;;;;;5042683;28;20247;-90
2021/12/25 08:10:13;;;;;;;14.33;12.83;;;0.50;99.90;;;;;;5058757;28;20476;-90
2021/12/25 08:12:44;;;;;;;19.17;14.20;;;1.30;99.90;;;;;;5056707;28;20186;-90
2021/12/25 08:15:10;;;;;;;14.43;12.93;;;1.50;99.90;;;;;;5038072;28;20194;-90
2021/12/25 08:17:36;;;;;;;13.73;11.95;;;1.20;99.90;;;;;;5032839;28;20219;-91
2021/12/25 08:20:03;;;;;;;17.13;12.53;;;1.10;99.90;;;;;;5059480;28;20690;-90
2021/12/25 08:22:29;;;;;;;17.42;15.63;;;1.30;99.90;;;;;;5055724;28;20436;-90
2021/12/25 08:24:55;;;;;;;16.33;13.63;;;1.50;99.90;;;;;;5046351;28;20558;-91
2021/12/25 08:27:20;;;;;;;16.10;13.67;;;0.90;99.90;;;;;;5065744;28;20179;-90
2021/12/25 08:29:46;;;;;;;17.63;14.43;;;1.00;99.90;;;;;;5059077;28;20266;-90
2021/12/25 08:32:13;;;;;;;17.40;15.47;;;1.00;99.90;;;;;;5067700;28;20266;-91
2021/12/25 08:34:40;;;;;;;17.30;11.07;;;1.00;99.90;;;;;;5038783;28;20511;-90
2021/12/25 08:37:06;;;;;;;16.13;13.43;;;1.10;99.90;;;;;;5049269;28;20205;-90
2021/12/25 08:39:32;;;;;;;15.97;13.80;;;1.10;99.90;;;;;;5040784;28;20191;-90
2021/12/25 08:42:03;;;;;;;12.27;11.07;;;;;;;;;;5058495;28;20175;-90
2021/12/25 08:44:39;;;;;;;14.18;12.77;;;1.10;99.90;;;;;;5055394;28;20437;-90
2021/12/25 08:47:10;;;;;;;13.05;11.75;;;1.20;99.90;;;;;;5039789;28;20648;-90
2021/12/25 08:49:39;;;;;;;12.20;11.07;;;0.90;99.90;;;;;;5037977;28;20696;-91
2021/12/25 08:52:12;;;;;;;11.07;9.93;;;1.30;99.90;;;;;;5059770;28;20213;-91
2021/12/25 08:54:38;;;;;;;12.95;11.75;;;1.20;99.90;;;;;;5065657;28;20190;-90
2021/12/25 08:57:07;;;;;;;13.43;12.05;;;1.40;99.90;;;;;;5059735;28;20246;-91
2021/12/25 08:59:34;;;;;;;14.43;11.45;;;1.30;99.90;;;;;;5061680;28;20209;-90
2021/12/25 09:02:01;;;;;;;11.90;10.85;;;1.20;99.90;;;;;;5042229;28;20431;-90
2021/12/25 09:04:27;;;;;;;12.88;11.52;;;1.40;99.90;;;;;;5044322;28;20183;-89
2021/12/25 09:06:52;;;;;;;13.00;11.47;;;1.30;99.90;;;;;;5023896;28;20260;-90
2021/12/25 09:09:18;;;;;;;11.97;10.87;;;1.40;99.90;;;;;;5028413;28;20226;-90
2021/12/25 09:11:45;;;;;;;11.23;10.00;;;1.90;99.90;;;;;;5039042;28;20618;-89
2021/12/25 09:14:10;;;;;;;9.63;8.75;;;1.50;99.90;;;;;;5048844;28;20433;-91
2021/12/25 09:16:37;;;;;;;9.57;8.83;;;1.40;99.90;;;;;;5063005;28;20179;-91
2021/12/25 09:19:03;;;;;;;10.00;9.20;;;1.60;99.90;;;;;;5040792;28;20773;-91
2021/12/25 09:21:29;;;;;;;10.65;8.40;;;1.50;99.90;;;;;;5060658;28;20190;-90
2021/12/25 09:23:55;;;;;;;9.20;8.50;;;;;;;;;;5046634;28;20278;-90
2021/12/25 09:26:21;;;;;;;10.60;8.32;;;1.50;99.90;;;;;;5037996;28;20255;-89
2021/12/25 09:28:47;;;;;;;9.87;9.07;;;1.40;99.90;;;;;;5046535;28;20206;-89
2021/12/25 09:31:13;;;;;;;9.63;8.68;;;1.30;99.90;;;;;;5058457;28;20245;-89
2021/12/25 09:33:41;;;;;;;7.78;7.15;;;1.40;99.90;;;;;;5036575;28;20253;-90
2021/12/25 09:36:08;;;;;;;8.13;7.53;;;1.20;99.90;;;;;;5036946;28;20195;-90
2021/12/25 09:38:35;;;;;;;6.13;5.80;;;1.20;99.90;;;;;;5050835;28;20179;-89
2021/12/25 09:41:05;;;;;;;9.40;8.65;;;1.20;99.90;;;;;;5049349;28;20586;-91
2021/12/25 09:43:39;;;;;;;7.53;6.93;;;1.10;99.90;;;;;;5075003;28;20183;-91
2021/12/25 09:46:05;;;;;;;6.22;5.93;;;1.10;99.90;;;;;;5049647;28;20278;-91
2021/12/25 09:48:33;;;;;;;7.15;6.63;;;1.30;99.90;;;;;;5052342;28;20237;-87
2021/12/25 09:51:04;;;;;;;7.57;6.88;;;1.40;99.90;;;;;;5039220;28;20206;-90
2021/12/25 09:53:32;;;;;;;7.55;6.95;;;1.40;99.90;;;;;;4707625;28;10000945;-91
2021/12/25 09:55:58;;;;;;;6.75;6.28;;;1.50;99.90;;;;;;5038888;28;20557;-90
2021/12/25 09:58:27;;;;;;;5.80;5.30;;;1.30;99.90;;;;;;5062085;28;20190;-91
2021/12/25 10:00:53;;;;;;;5.50;5.20;;;1.30;99.90;;;;;;5046473;28;20258;-90
2021/12/25 10:03:19;;;;;;;6.43;5.87;;;1.40;99.90;;;;;;5037877;28;20186;-90
2021/12/25 10:05:48;;;;;;;6.28;5.88;;;1.30;99.90;;;;;;5045518;28;20170;-89
2021/12/25 10:08:22;;;;;;;7.38;6.70;;;1.30;99.90;;;;;;5043366;28;20185;-90
2021/12/25 10:10:54;;;;;;;5.43;5.13;;;1.40;99.90;;;;;;5042172;28;20199;-93
2021/12/25 10:13:42;;;;;;;6.85;6.45;;;1.20;99.90;;;;;;5056884;28;20686;-91
2021/12/25 10:16:31;;;;;;;6.07;5.78;;;1.20;99.90;;;;;;5037222;28;20301;-90
2021/12/25 10:19:16;;;;;;;5.35;4.95;;;1.20;99.90;;;;;;5049154;28;20340;-89
2021/12/25 10:21:42;;;;;;;5.85;5.35;;;1.30;99.90;;;;;;5046214;28;20243;-89
2021/12/25 10:24:11;;;;;;;5.10;4.85;;;1.30;99.90;;;;;;5046667;28;20440;-89
2021/12/25 10:26:40;;;;;;;4.95;4.60;;;1.20;99.90;;;;;;5044914;28;20189;-90
2021/12/25 10:29:22;;;;;;;4.85;4.45;;;1.70;99.90;;;;;;5072209;28;20203;-90
2021/12/25 10:32:12;;;;;;;5.25;4.97;;;1.20;99.90;;;;;;5049766;28;20206;-90
2021/12/25 10:34:40;;;;;;;5.35;5.05;;;1.30;99.90;;;;;;5058799;28;20195;-91
2021/12/25 10:37:12;;;;;;;3.72;3.63;;;1.20;99.90;;;;;;5040780;28;20185;-90
2021/12/25 10:39:41;;;;;;;4.75;4.55;;;1.40;99.90;;;;;;5019451;28;20203;-90
2021/12/25 10:42:17;;;;;;;4.47;4.32;;;1.40;99.90;;;;;;5070344;28;20605;-91
2021/12/25 10:44:48;;;;;;;4.47;4.28;;;1.50;99.90;;;;;;4695030;28;9999971;-89
2021/12/25 10:47:16;;;;;;;3.97;3.88;;;1.40;99.90;;;;;;5060261;28;20205;-90
2021/12/25 10:49:52;;;;;;;4.60;4.20;;;1.50;99.90;;;;;;5070009;28;20272;-89
2021/12/25 10:52:24;;;;;;;4.53;4.22;;;1.30;99.90;;;;;;5047383;28;20606;-90
2021/12/25 10:54:53;;;;;;;4.35;3.95;;;1.40;99.90;;;;;;5043395;28;20244;-90
2021/12/25 10:57:40;;;;;;;4.28;4.18;;;1.30;99.90;;;;;;5046945;28;20182;-89
2021/12/25 11:00:09;;;;;;;3.97;3.70;;;1.50;99.90;;;;;;5068048;28;20202;-90
2021/12/25 11:02:36;;;;;;;6.45;2.90;;;1.60;99.90;;;;;;5064065;28;20616;-89
2021/12/25 11:05:24;;;;;;;3.30;3.20;;;1.60;99.90;;;;;;5056549;28;20313;-90
2021/12/25 11:08:32;;;;;;;3.90;3.80;;;1.60;99.90;;;;;;5077962;28;20400;-90
2021/12/25 11:11:06;;;;;;;4.03;3.92;;;2.10;99.90;;;;;;5075776;28;20221;-89
2021/12/25 11:13:48;;;;;;;25.35;13.63;;;1.60;99.90;;;;;;5075199;28;20232;-90
2021/12/25 11:16:27;;;;;;;2.58;2.38;;;0.50;99.90;;;;;;5066150;28;20240;-89
2021/12/25 11:19:29;;;;;;;5.05;4.75;;;1.90;99.90;;;;;;5061829;28;20225;-88
2021/12/25 11:22:00;;;;;;;5.85;5.30;;;2.10;99.90;;;;;;5065849;28;20215;-89
2021/12/25 11:24:36;;;;;;;3.40;3.30;;;1.70;99.90;;;;;;5058659;28;20643;-88
2021/12/25 11:27:06;;;;;;;3.58;3.47;;;2.00;99.90;;;;;;5051182;28;20189;-89
2021/12/25 11:29:34;;;;;;;3.60;3.55;;;1.70;99.90;;;;;;5052818;28;20206;-88
2021/12/25 11:32:03;;;;;;;4.30;4.00;;;2.00;99.90;;;;;;5055456;28;20675;-89
2021/12/25 11:34:29;;;;;;;3.75;3.65;;;1.90;99.90;;;;;;5057670;28;20190;-91
2021/12/25 11:37:06;;;;;;;3.13;3.05;;;1.90;99.90;;;;;;5058960;28;20268;-95
2021/12/25 11:39:54;;;;;;;3.38;3.28;;;1.80;99.90;;;;;;5080529;28;20178;-92
2021/12/25 11:42:31;;;;;;;2.60;2.60;;;1.70;99.90;;;;;;5084226;28;20585;-93
2021/12/25 11:45:13;;;;;;;3.40;3.30;;;1.60;99.90;;;;;;5053893;28;20182;-92
2021/12/25 11:47:41;;;;;;;2.85;2.80;;;1.70;99.90;;;;;;5054672;28;20213;-94
2021/12/25 11:54:15;;;;;;;3.58;3.47;;;1.90;99.90;;;;;;5077784;28;20183;-92
2021/12/25 11:56:41;;;;;;;2.92;2.83;;;1.90;99.90;;;;;;5075386;28;20198;-94
2021/12/25 11:59:13;;;;;;;3.40;3.30;;;2.10;99.90;;;;;;5058584;28;20228;-91
2021/12/25 12:01:48;;;;;;;3.15;3.15;;;1.90;99.90;;;;;;5067166;28;20615;-91
2021/12/25 12:04:16;;;;;;;3.03;3.03;;;;;;;;;;5067320;28;20170;-93
2021/12/25 12:06:51;;;;;;;2.90;2.80;;;2.00;99.90;;;;;;5065610;28;20167;-93
2021/12/25 12:10:04;;;;;;;2.75;2.67;;;2.10;99.90;;;;;;5065249;28;20216;-94
2021/12/25 12:12:30;;;;;;;2.03;2.03;;;1.70;99.90;;;;;;5061594;28;20185;-93
2021/12/25 12:15:04;;;;;;;2.20;2.20;;;1.70;99.90;;;;;;5060970;28;20246;-93
2021/12/25 12:17:32;;;;;;;2.60;2.47;;;1.70;99.90;;;;;;5040497;28;20439;-93
2021/12/25 12:20:03;;;;;;;3.22;3.05;;;1.50;99.90;;;;;;5048798;28;20179;-92
2021/12/25 12:22:40;;;;;;;3.60;3.40;;;1.60;99.90;;;;;;5070812;28;20151;-91
2021/12/25 12:28:01;;;;;;;3.35;3.35;;;1.60;99.90;;;;;;5063482;28;20187;-93
2021/12/25 12:30:49;;;;;;;3.80;3.55;;;1.60;99.90;;;;;;5053496;28;20218;-92
2021/12/25 12:33:15;;;;;;;3.70;3.50;;;2.30;99.90;;;;;;5047121;28;20263;-91
2021/12/25 12:35:43;;;;;;;2.90;2.80;;;1.60;99.90;;;;;;5064854;28;20175;-91
2021/12/25 12:38:40;;;;;;;2.65;2.55;;;1.60;99.90;;;;;;5046519;28;20191;-92
2021/12/25 12:41:20;;;;;;;2.42;2.42;;;1.80;99.90;;;;;;5069897;28;20159;-93
2021/12/25 12:44:04;;;;;;;2.40;2.30;;;2.10;99.90;;;;;;5038662;28;20210;-93
2021/12/25 12:47:18;;;;;;;2.58;2.47;;;2.60;99.90;;;;;;5036069;28;20201;-93
2021/12/25 12:49:50;;;;;;;2.20;2.20;;;3.20;99.90;;;;;;5025437;28;20238;-93
2021/12/25 12:52:20;;;;;;;2.40;2.30;;;3.30;99.90;;;;;;5038469;28;20184;-92
2021/12/25 12:54:52;;;;;;;2.35;2.15;;;3.70;99.90;;;;;;5055385;28;20187;-91
2021/12/25 12:57:24;;;;;;;2.10;2.10;;;4.10;99.90;;;;;;5035730;28;20559;-93
2021/12/25 13:00:00;;;;;;;2.47;2.47;;;4.50;99.90;;;;;;5032390;28;20885;-91
2021/12/25 13:02:29;;;;;;;2.30;2.30;;;4.40;99.90;;;;;;5052990;28;20179;-92
2021/12/25 13:04:58;;;;;;;3.65;2.13;;;4.70;99.90;;;;;;5052728;28;20179;-93
2021/12/25 13:07:24;;;;;;;3.05;2.85;;;;;;;;;;5041254;28;20182;-93
2021/12/25 13:10:11;;;;;;;2.08;2.08;;;4.50;99.90;;;;;;5029049;28;20222;-93
2021/12/25 13:15:14;;;;;;;2.75;2.65;;;3.60;99.90;;;;;;5030447;28;20208;-93
2021/12/25 13:17:48;;;;;;;2.55;2.35;;;3.30;99.90;;;;;;5035561;28;20241;-92
2021/12/25 13:20:15;;;;;;;2.53;2.53;;;3.20;99.90;;;;;;5055378;28;20197;-93
2021/12/25 13:22:41;;;;;;;1.80;1.80;;;2.90;99.90;;;;;;5059063;28;20555;-93
2021/12/25 13:25:11;;;;;;;1.97;1.87;;;2.70;99.90;;;;;;5074250;28;20177;-90
2021/12/25 13:27:37;;;;;;;2.08;2.00;;;;;;;;;;5070523;28;20186;-92
2021/12/25 13:30:09;;;;;;;2.08;2.08;;;2.90;99.90;;;;;;5052899;28;20222;-93
2021/12/25 13:32:35;;;;;;;2.10;2.10;;;2.80;99.90;;;;;;5050763;28;20213;-92
2021/12/25 13:35:04;;;;;;;2.00;2.00;;;;;;;;;;5056285;28;20195;-91
2021/12/25 13:37:30;;;;;;;2.17;2.17;;;2.90;99.90;;;;;;5038607;28;20491;-92
2021/12/25 13:39:58;;;;;;;3.10;2.27;;;2.80;99.90;;;;;;5059746;28;20195;-93
2021/12/25 13:42:25;;;;;;;1.77;1.77;;;2.70;99.90;;;;;;5062846;28;20183;-93
2021/12/25 13:44:53;;;;;;;1.67;1.67;;;2.90;99.90;;;;;;5076534;28;20185;-93
2021/12/25 13:47:21;;;;;;;2.25;2.25;;;3.40;99.90;;;;;;5038992;28;20163;-92
2021/12/25 13:49:55;;;;;;;1.52;1.52;;;4.00;99.90;;;;;;5066754;28;20325;-92
2021/12/25 13:52:23;;;;;;;2.03;1.98;;;4.20;99.90;;;;;;5072989;28;20204;-93
2021/12/25 13:55:00;;;;;;;2.17;2.00;;;5.10;99.90;;;;;;5038195;28;20218;-92
2021/12/25 13:57:27;;;;;;;2.05;2.03;;;5.70;99.90;;;;;;5059411;28;20270;-92
2021/12/25 13:59:57;;;;;;;1.60;1.60;;;5.90;99.90;;;;;;5069832;28;20357;-91
2021/12/25 14:02:24;;;;;;;2.10;1.65;;;;;;;;;;5042561;28;20179;-92
2021/12/25 14:04:52;;;;;;;3.25;2.10;;;5.90;99.90;;;;;;5057603;28;20190;-91
2021/12/25 14:07:23;;;;;;;1.58;1.58;;;5.70;99.90;;;;;;5077300;28;20638;-91
2021/12/25 14:10:38;;;;;;;2.63;1.70;;;5.00;99.90;;;;;;5066978;28;20218;-92
2021/12/25 14:13:36;;;;;;;2.25;2.15;;;4.10;99.90;;;;;;5074559;28;20194;-93
2021/12/25 14:16:48;;;;;;;1.60;1.58;;;3.70;99.90;;;;;;5037183;28;20178;-93
2021/12/25 14:20:09;;;;;;;1.52;1.52;;;3.00;99.90;;;;;;5051738;28;20195;-93
2021/12/25 14:23:32;;;;;;;2.00;2.00;;;2.50;99.90;;;;;;5047765;28;20632;-91
2021/12/25 14:27:00;;;;;;;2.30;1.75;;;2.60;99.90;;;;;;5055458;28;20187;-92
2021/12/25 14:30:29;;;;;;;1.70;1.60;;;2.60;99.90;;;;;;5048348;28;20314;-93